Oostburg, Wisconsin
Current Conditions -  °F | °C
As of 3:37 PM on Sunday 21 Dec 2014 (Local Time) from KSBM Reporting Station
Haze Haze  
Wind Chill: 28°   Ceiling: 3400
Heat Index: 35°   Visibility: 5mi
Dew Point: 31°   Wind: 9mph
Humidity: 85%   Direction: 170°S
Pressure: 30.04"   Gusts: NA
Location:  43.62°N, 87.79°W
Report Text: KSBM 212137Z AUTO 17008KT 5SM BR SCT028 OVC034 02/M01 A3004 RMK AO2 T00171006
Loading
Personal Weather Stations






























Interactive Weather Map New forecast layout! Learn more

10-Day Weather Forecast

Advertisements
Track Severe Weather on mobile